createdAt,value
2023-01-21T00:02:14.552Z,41.17
2023-01-21T00:04:44.228Z,47.57
2023-01-21T00:07:13.866Z,46.70
2023-01-21T00:09:43.525Z,42.03
2023-01-21T00:12:13.172Z,38.13
2023-01-21T00:14:46.079Z,38.42
2023-01-21T00:17:15.717Z,41.55
2023-01-21T00:19:45.335Z,42.17
2023-01-21T00:22:15.054Z,36.17
2023-01-21T00:24:44.686Z,39.53
2023-01-21T00:27:14.311Z,39.10
2023-01-21T00:29:46.583Z,39.50
2023-01-21T00:32:16.291Z,42.33
2023-01-21T00:34:46.136Z,43.83
2023-01-21T00:37:15.780Z,46.50
2023-01-21T00:39:45.435Z,48.00
2023-01-21T00:42:15.218Z,50.67
2023-01-21T00:44:47.447Z,48.80
2023-01-21T00:47:17.163Z,45.55
2023-01-21T00:49:46.792Z,49.20
2023-01-21T00:52:16.449Z,46.50
2023-01-21T00:54:46.072Z,47.53
2023-01-21T00:57:16.322Z,47.80
2023-01-21T00:59:48.784Z,53.45
2023-01-21T01:02:18.466Z,58.95
2023-01-21T01:04:49.054Z,52.92
2023-01-21T01:07:18.678Z,50.72
2023-01-21T01:09:48.292Z,46.70
2023-01-21T01:12:17.955Z,49.13
2023-01-21T01:14:50.263Z,59.42
2023-01-21T01:17:19.927Z,52.47
2023-01-21T01:19:49.587Z,58.78
2023-01-21T01:22:19.200Z,57.77
2023-01-21T01:24:49.025Z,52.72
2023-01-21T01:27:18.809Z,51.63
2023-01-21T01:29:51.370Z,50.25
2023-01-21T01:32:21.000Z,47.50
2023-01-21T01:34:50.655Z,49.72
2023-01-21T01:37:20.316Z,49.20
2023-01-21T01:39:49.920Z,50.08
2023-01-21T01:42:19.614Z,44.92
2023-01-21T01:45:14.699Z,41.83
2023-01-21T01:47:48.040Z,44.50
2023-01-21T01:50:22.382Z,41.08
2023-01-21T01:52:52.052Z,43.15
2023-01-21T01:55:21.852Z,40.80
2023-01-21T01:57:55.434Z,44.88
2023-01-21T02:00:29.107Z,49.20
2023-01-21T02:03:12.035Z,45.23
2023-01-21T02:05:45.021Z,46.00
2023-01-21T02:08:14.805Z,39.90
2023-01-21T02:10:44.443Z,41.93
2023-01-21T02:13:15.043Z,44.63
2023-01-21T02:16:02.080Z,43.13
2023-01-21T02:18:41.073Z,39.90
2023-01-21T02:21:55.835Z,46.33
2023-01-21T02:25:00.972Z,42.80
2023-01-21T02:27:54.537Z,45.85
2023-01-21T02:30:44.575Z,47.55
2023-01-21T02:33:39.211Z,41.33
2023-01-21T02:36:33.111Z,39.63
2023-01-21T02:39:10.501Z,40.88
2023-01-21T02:41:52.616Z,36.33
2023-01-21T02:44:30.401Z,40.35
2023-01-21T02:47:08.689Z,37.83
2023-01-21T02:49:45.026Z,36.00
2023-01-21T02:52:21.216Z,36.17
2023-01-21T02:54:56.919Z,37.95
2023-01-21T02:57:44.728Z,38.83
2023-01-21T03:00:20.621Z,38.58
2023-01-21T03:03:21.713Z,37.97
2023-01-21T03:06:26.867Z,38.10
2023-01-21T03:09:04.862Z,35.25
2023-01-21T03:11:35.068Z,37.53
2023-01-21T03:14:26.141Z,36.90
2023-01-21T03:17:00.659Z,42.50
2023-01-21T03:19:38.408Z,42.63
2023-01-21T03:22:13.991Z,52.30
2023-01-21T03:24:50.700Z,47.55
2023-01-21T03:27:25.338Z,48.92
2023-01-21T03:30:00.416Z,49.05
2023-01-21T03:32:33.967Z,46.67
2023-01-21T03:35:06.085Z,50.88
2023-01-21T03:37:43.127Z,50.15
2023-01-21T03:40:24.931Z,47.67
2023-01-21T03:42:56.481Z,45.63
2023-01-21T03:45:40.036Z,46.28
2023-01-21T03:48:21.818Z,44.83
2023-01-21T03:50:58.096Z,43.75
2023-01-21T03:53:28.457Z,49.70
2023-01-21T03:56:00.756Z,48.90
2023-01-21T03:58:31.281Z,48.87
2023-01-21T04:01:00.941Z,50.85
2023-01-21T04:03:30.741Z,48.08
2023-01-21T04:06:00.337Z,50.42
2023-01-21T04:08:29.999Z,51.63
2023-01-21T04:11:02.239Z,51.85
2023-01-21T04:13:31.929Z,43.67
2023-01-21T04:16:01.568Z,49.55
2023-01-21T04:18:31.244Z,47.43
2023-01-21T04:21:01.344Z,46.77
2023-01-21T04:23:31.072Z,45.47
2023-01-21T04:26:03.354Z,47.73
2023-01-21T04:28:33.007Z,50.97
2023-01-21T04:31:02.709Z,47.93
2023-01-21T04:33:32.347Z,46.67
2023-01-21T04:36:03.020Z,45.90
2023-01-21T04:38:32.715Z,44.72
2023-01-21T04:41:04.921Z,42.03
2023-01-21T04:43:34.578Z,43.28
2023-01-21T04:46:04.331Z,41.10
2023-01-21T04:48:34.127Z,44.70
2023-01-21T04:51:03.812Z,44.53
2023-01-21T04:53:33.468Z,48.70
2023-01-21T04:56:05.709Z,47.43
2023-01-21T04:58:35.387Z,48.03
2023-01-21T05:01:05.089Z,49.63
2023-01-21T05:03:34.914Z,52.57
2023-01-21T05:06:04.651Z,47.83
2023-01-21T05:08:34.325Z,55.70
2023-01-21T05:11:06.594Z,54.25
2023-01-21T05:13:36.331Z,55.47
2023-01-21T05:16:09.930Z,53.03
2023-01-21T05:18:40.843Z,56.30
2023-01-21T05:21:11.139Z,50.03
2023-01-21T05:23:40.839Z,55.85
2023-01-21T05:26:13.079Z,60.63
2023-01-21T05:28:42.779Z,52.97
2023-01-21T05:31:12.491Z,58.13
2023-01-21T05:33:44.018Z,56.30
2023-01-21T05:36:13.789Z,51.90
2023-01-21T05:38:43.445Z,54.77
2023-01-21T05:41:15.687Z,56.20
2023-01-21T05:43:45.369Z,64.87
2023-01-21T05:46:15.244Z,57.13
2023-01-21T05:48:45.007Z,53.63
2023-01-21T05:51:14.839Z,61.20
2023-01-21T05:53:44.563Z,63.83
2023-01-21T05:56:17.057Z,57.70
2023-01-21T05:58:46.805Z,61.90
2023-01-21T06:01:16.610Z,59.83
2023-01-21T06:03:46.317Z,63.65
2023-01-21T06:06:16.008Z,55.03
2023-01-21T06:08:45.681Z,58.57
2023-01-21T06:11:17.953Z,51.13
2023-01-21T06:13:47.637Z,56.92
2023-01-21T06:16:17.277Z,55.00
2023-01-21T06:18:46.969Z,59.37
2023-01-21T06:21:16.656Z,57.17
2023-01-21T06:23:46.305Z,61.50
2023-01-21T06:26:18.520Z,59.07
2023-01-21T06:28:48.210Z,62.70
2023-01-21T06:31:17.982Z,66.77
2023-01-21T06:33:47.693Z,55.70
2023-01-21T06:36:17.367Z,64.33
2023-01-21T06:38:47.053Z,58.83
2023-01-21T06:41:19.302Z,58.33
2023-01-21T06:43:48.964Z,59.07
2023-01-21T06:46:18.698Z,54.53
2023-01-21T06:48:48.480Z,62.05
2023-01-21T06:51:18.169Z,55.63
2023-01-21T06:53:47.893Z,47.67
2023-01-21T06:56:20.368Z,53.93
2023-01-21T06:58:50.037Z,55.63
2023-01-21T07:01:19.680Z,57.27
2023-01-21T07:03:49.325Z,53.53
2023-01-21T07:06:19.002Z,61.93
2023-01-21T07:08:48.743Z,55.43
2023-01-21T07:11:21.020Z,56.30
2023-01-21T07:13:50.682Z,61.13
2023-01-21T07:16:20.356Z,54.10
2023-01-21T07:18:50.046Z,56.17
2023-01-21T07:21:19.958Z,55.90
2023-01-21T07:23:49.598Z,54.57
2023-01-21T07:26:21.858Z,57.17
2023-01-21T07:28:51.645Z,55.00
2023-01-21T07:31:21.444Z,57.63
2023-01-21T07:33:51.263Z,57.33
2023-01-21T07:36:20.999Z,59.37
2023-01-21T07:38:50.656Z,58.13
2023-01-21T07:41:22.974Z,56.87
2023-01-21T07:43:53.379Z,59.10
2023-01-21T07:46:24.187Z,54.73
2023-01-21T07:48:54.820Z,60.95
2023-01-21T07:51:25.092Z,60.63
2023-01-21T07:53:54.757Z,57.13
2023-01-21T07:56:27.601Z,62.00
2023-01-21T07:58:57.404Z,59.47
2023-01-21T08:01:31.023Z,51.47
2023-01-21T08:04:01.068Z,57.93
2023-01-21T08:06:30.724Z,60.07
2023-01-21T08:09:00.356Z,58.07
2023-01-21T08:11:32.593Z,54.20
2023-01-21T08:14:02.269Z,61.20
2023-01-21T08:16:31.957Z,58.87
2023-01-21T08:19:01.625Z,59.87
2023-01-21T08:21:31.245Z,53.53
2023-01-21T08:24:00.929Z,63.83
2023-01-21T08:26:33.165Z,61.67
2023-01-21T08:29:02.839Z,65.33
2023-01-21T08:31:32.614Z,59.63
2023-01-21T08:34:02.317Z,58.17
2023-01-21T08:36:32.001Z,61.40
2023-01-21T08:39:02.090Z,64.40
2023-01-21T08:41:34.635Z,75.27
2023-01-21T08:44:04.320Z,70.23
2023-01-21T08:46:34.184Z,61.47
2023-01-21T08:49:03.933Z,70.53
2023-01-21T08:51:33.591Z,63.50
2023-01-21T08:54:04.619Z,72.13
2023-01-21T08:56:37.382Z,68.03
2023-01-21T08:59:07.092Z,74.03
2023-01-21T09:01:40.870Z,73.10
2023-01-21T09:04:11.494Z,65.67
2023-01-21T09:06:41.164Z,67.93
2023-01-21T09:09:13.954Z,58.67
2023-01-21T09:11:46.373Z,57.93
2023-01-21T09:14:16.059Z,70.60
2023-01-21T09:16:45.764Z,65.10
2023-01-21T09:19:15.442Z,71.30
2023-01-21T09:21:45.075Z,72.17
2023-01-21T09:24:14.722Z,72.43
2023-01-21T09:26:47.642Z,74.97
2023-01-21T09:29:17.339Z,79.77
2023-01-21T09:31:47.028Z,76.63
2023-01-21T09:34:16.816Z,80.35
2023-01-21T09:36:46.434Z,86.03
2023-01-21T09:39:16.077Z,80.67
2023-01-21T09:41:52.770Z,89.37
2023-01-21T09:44:28.052Z,89.55
2023-01-21T09:47:03.343Z,87.80
2023-01-21T09:49:37.602Z,81.73
2023-01-21T09:52:25.345Z,92.97
2023-01-21T09:54:55.173Z,88.10
2023-01-21T09:57:46.357Z,84.17
2023-01-21T10:00:36.310Z,81.70
2023-01-21T10:03:17.506Z,86.87
2023-01-21T10:06:16.590Z,81.57
2023-01-21T10:09:02.378Z,94.67
2023-01-21T10:11:45.958Z,85.80
2023-01-21T10:14:39.633Z,84.67
2023-01-21T10:17:16.939Z,78.57
2023-01-21T10:19:54.375Z,74.30
2023-01-21T10:22:28.512Z,78.63
2023-01-21T10:25:03.011Z,80.50
2023-01-21T10:27:38.127Z,80.13
2023-01-21T10:30:24.728Z,73.93
2023-01-21T10:32:57.158Z,76.03
2023-01-21T10:35:54.983Z,80.97
2023-01-21T10:38:32.560Z,76.80
2023-01-21T10:41:11.358Z,74.27
2023-01-21T10:43:50.287Z,82.47
2023-01-21T10:46:29.168Z,76.90
2023-01-21T10:49:05.927Z,83.53
2023-01-21T10:51:45.469Z,76.87
2023-01-21T10:54:24.977Z,81.07
2023-01-21T10:57:03.271Z,82.97
2023-01-21T10:59:36.798Z,82.33
2023-01-21T11:02:23.200Z,86.00
2023-01-21T11:04:53.976Z,69.33
2023-01-21T11:07:25.069Z,77.43
2023-01-21T11:09:55.513Z,67.40
2023-01-21T11:12:25.167Z,85.40
2023-01-21T11:14:58.433Z,65.80
2023-01-21T11:17:36.624Z,73.37
2023-01-21T11:20:10.116Z,68.57
2023-01-21T11:22:46.367Z,72.10
2023-01-21T11:25:28.334Z,70.23
2023-01-21T11:27:58.029Z,59.67
2023-01-21T11:30:49.571Z,63.30
2023-01-21T11:33:31.474Z,72.73
2023-01-21T11:36:12.990Z,63.97
2023-01-21T11:38:43.194Z,67.53
2023-01-21T11:41:21.764Z,66.83
2023-01-21T11:43:54.645Z,62.60
2023-01-21T11:46:31.417Z,62.17
2023-01-21T11:49:22.571Z,58.23
2023-01-21T11:51:52.652Z,53.17
2023-01-21T11:54:23.756Z,56.70
2023-01-21T11:56:59.517Z,57.80
2023-01-21T11:59:34.314Z,58.70
2023-01-21T12:02:10.839Z,48.57
2023-01-21T12:04:48.470Z,46.93
2023-01-21T12:07:21.694Z,48.60
2023-01-21T12:09:57.059Z,49.63
2023-01-21T12:12:37.666Z,54.30
2023-01-21T12:15:18.246Z,55.80
2023-01-21T12:17:59.958Z,55.63
2023-01-21T12:20:42.028Z,53.30
2023-01-21T12:23:31.510Z,57.40
2023-01-21T12:26:15.971Z,51.90
2023-01-21T12:31:42.828Z,51.90
2023-01-21T12:34:19.380Z,47.37
2023-01-21T12:36:56.701Z,51.40
2023-01-21T12:39:30.122Z,42.33
2023-01-21T12:42:08.888Z,45.77
2023-01-21T12:44:45.781Z,51.50
2023-01-21T12:47:24.563Z,46.50
2023-01-21T12:50:18.029Z,45.80
2023-01-21T12:52:59.962Z,48.47
2023-01-21T12:55:39.715Z,44.03
2023-01-21T12:58:14.276Z,47.33
2023-01-21T13:00:47.851Z,46.10
2023-01-21T13:03:26.185Z,42.83
2023-01-21T13:06:00.672Z,44.63
2023-01-21T13:08:46.221Z,45.50
2023-01-21T13:11:22.203Z,43.03
2023-01-21T13:13:59.132Z,41.50
2023-01-21T13:16:29.244Z,37.40
2023-01-21T13:18:59.055Z,54.20
2023-01-21T13:21:38.890Z,38.77
2023-01-21T13:24:18.501Z,37.73
2023-01-21T13:26:55.828Z,38.63
2023-01-21T13:29:34.767Z,33.43
2023-01-21T13:32:23.505Z,39.07
2023-01-21T13:35:06.721Z,32.77
2023-01-21T13:37:42.285Z,34.13
2023-01-21T13:40:28.092Z,38.30
2023-01-21T13:43:09.705Z,34.47
2023-01-21T13:45:51.405Z,34.47
2023-01-21T13:48:49.566Z,34.00
2023-01-21T13:51:35.598Z,33.27
2023-01-21T13:54:30.096Z,34.40
2023-01-21T13:57:16.016Z,35.07
2023-01-21T13:59:52.255Z,35.93
2023-01-21T14:02:26.773Z,37.80
2023-01-21T14:05:02.187Z,39.73
2023-01-21T14:07:36.664Z,32.90
2023-01-21T14:10:16.152Z,36.80
2023-01-21T14:13:07.581Z,36.93
2023-01-21T14:15:51.351Z,42.13
2023-01-21T14:18:41.151Z,38.60
2023-01-21T14:21:22.329Z,46.80
2023-01-21T14:24:08.339Z,46.17
2023-01-21T14:26:49.639Z,44.07
2023-01-21T14:29:29.352Z,44.63
2023-01-21T14:32:06.563Z,41.10
2023-01-21T14:34:47.672Z,46.60
2023-01-21T14:37:20.855Z,46.77
2023-01-21T14:40:01.015Z,44.70
2023-01-21T14:42:44.977Z,42.53
2023-01-21T14:45:20.482Z,48.60
2023-01-21T14:47:53.842Z,47.03
2023-01-21T14:50:49.489Z,50.33
2023-01-21T14:53:26.155Z,44.00
2023-01-21T14:56:13.106Z,41.10
2023-01-21T14:58:49.161Z,45.23
2023-01-21T15:01:34.772Z,44.43
2023-01-21T15:04:07.856Z,44.10
2023-01-21T15:06:42.583Z,59.73
2023-01-21T15:09:24.064Z,73.97
2023-01-21T15:11:58.632Z,60.10
2023-01-21T15:14:31.228Z,48.67
2023-01-21T15:17:03.971Z,50.30
2023-01-21T15:19:36.039Z,39.87
2023-01-21T15:22:24.701Z,44.67
2023-01-21T15:25:27.014Z,40.80
2023-01-21T15:28:40.102Z,43.60
2023-01-21T15:31:12.183Z,40.17
2023-01-21T15:33:49.727Z,36.60
2023-01-21T15:36:25.875Z,43.37
2023-01-21T15:39:02.029Z,41.93
2023-01-21T15:41:44.943Z,43.87
2023-01-21T15:44:30.050Z,43.13
2023-01-21T15:47:10.756Z,45.00
2023-01-21T15:49:54.763Z,39.13
2023-01-21T15:52:36.057Z,41.27
2023-01-21T15:55:20.238Z,44.80
2023-01-21T15:57:57.852Z,42.00
2023-01-21T16:00:35.913Z,41.30
2023-01-21T16:03:22.805Z,40.33
2023-01-21T16:06:04.678Z,36.80
2023-01-21T16:08:53.538Z,36.93
2023-01-21T16:11:42.086Z,42.40
2023-01-21T16:14:25.793Z,39.70
2023-01-21T16:17:07.254Z,43.10
2023-01-21T16:19:40.857Z,36.33
2023-01-21T16:22:15.295Z,40.60
2023-01-21T16:24:49.764Z,40.23
2023-01-21T16:27:21.404Z,43.10
2023-01-21T16:29:57.070Z,40.53
2023-01-21T16:32:27.191Z,44.47
2023-01-21T16:34:57.277Z,45.70
2023-01-21T16:37:31.262Z,38.33
2023-01-21T16:40:23.405Z,40.50
2023-01-21T16:43:09.077Z,49.00
2023-01-21T16:45:39.535Z,42.40
2023-01-21T16:48:24.162Z,43.43
2023-01-21T16:50:55.058Z,42.50
2023-01-21T16:53:28.239Z,47.20
2023-01-21T16:55:59.606Z,49.70
2023-01-21T16:58:32.593Z,41.07
2023-01-21T17:01:14.107Z,46.53
2023-01-21T17:03:44.583Z,47.10
2023-01-21T17:06:18.420Z,45.00
2023-01-21T17:08:54.533Z,49.10
2023-01-21T17:11:25.373Z,48.37
2023-01-21T17:13:55.496Z,44.78
2023-01-21T17:16:29.395Z,48.50
2023-01-21T17:19:02.750Z,48.67
2023-01-21T17:21:39.781Z,47.00
2023-01-21T17:24:25.307Z,49.70
2023-01-21T17:26:58.266Z,48.80
2023-01-21T17:29:30.930Z,46.77
2023-01-21T17:32:02.227Z,53.70
2023-01-21T17:34:33.651Z,46.47
2023-01-21T17:37:05.662Z,45.50
2023-01-21T17:40:03.423Z,48.13
2023-01-21T17:42:40.546Z,45.63
2023-01-21T17:45:21.010Z,46.80
2023-01-21T17:48:08.617Z,51.27
2023-01-21T17:50:39.992Z,44.73
2023-01-21T17:53:19.941Z,48.80
2023-01-21T17:56:02.260Z,46.37
2023-01-21T17:58:47.027Z,47.37
2023-01-21T18:01:18.088Z,44.23
2023-01-21T18:03:47.813Z,44.70
2023-01-21T18:06:23.192Z,47.90
2023-01-21T18:08:54.177Z,42.83
2023-01-21T18:11:26.636Z,44.50
2023-01-21T18:13:56.248Z,43.10
2023-01-21T18:16:25.922Z,41.10
2023-01-21T18:18:56.333Z,44.30
2023-01-21T18:21:25.965Z,45.97
2023-01-21T18:23:55.966Z,44.07
2023-01-21T18:26:35.026Z,35.20
2023-01-21T18:29:04.652Z,39.87
2023-01-21T18:31:34.382Z,36.27
2023-01-21T18:34:04.302Z,43.03
2023-01-21T18:36:34.375Z,34.77
2023-01-21T18:39:03.968Z,44.67
2023-01-21T18:41:36.131Z,37.60
2023-01-21T18:44:05.836Z,36.77
2023-01-21T18:46:39.604Z,35.77
2023-01-21T18:49:15.178Z,39.80
2023-01-21T18:51:45.045Z,40.67
2023-01-21T18:54:16.614Z,34.70
2023-01-21T18:56:49.638Z,37.73
2023-01-21T18:59:22.427Z,39.33
2023-01-21T19:01:52.137Z,33.07
2023-01-21T19:04:22.292Z,37.73
2023-01-21T19:06:55.510Z,35.17
2023-01-21T19:09:27.132Z,38.43
2023-01-21T19:11:59.341Z,38.40
2023-01-21T19:14:28.985Z,36.73
2023-01-21T19:16:58.627Z,35.60
2023-01-21T19:19:28.675Z,29.97
2023-01-21T19:21:58.319Z,35.50
2023-01-21T19:24:28.215Z,36.07
2023-01-21T19:27:00.973Z,33.40
2023-01-21T19:29:31.658Z,41.63
2023-01-21T19:32:01.642Z,38.03
2023-01-21T19:34:31.430Z,32.67
2023-01-21T19:37:01.732Z,35.70
2023-01-21T19:39:32.882Z,38.37
2023-01-21T19:42:08.620Z,33.00
2023-01-21T19:44:39.351Z,35.60
2023-01-21T19:47:16.921Z,37.83
2023-01-21T19:49:46.790Z,30.27
2023-01-21T19:52:17.522Z,34.50
2023-01-21T19:54:47.308Z,35.37
2023-01-21T19:57:20.350Z,35.00
2023-01-21T19:59:53.208Z,37.60
2023-01-21T20:02:23.048Z,33.13
2023-01-21T20:04:52.878Z,31.40
2023-01-21T20:07:22.966Z,36.60
2023-01-21T20:09:53.093Z,34.93
2023-01-21T20:12:25.289Z,32.90
2023-01-21T20:14:54.933Z,35.40
2023-01-21T20:17:24.715Z,33.40
2023-01-21T20:19:54.357Z,29.20
2023-01-21T20:22:25.702Z,25.10
2023-01-21T20:24:55.684Z,27.93
2023-01-21T20:27:27.892Z,27.13
2023-01-21T20:30:14.811Z,23.67
2023-01-21T20:32:46.075Z,25.83
2023-01-21T20:35:15.944Z,21.43
2023-01-21T20:37:48.972Z,23.13
2023-01-21T20:40:21.664Z,24.00
2023-01-21T20:42:55.097Z,21.30
2023-01-21T20:45:29.625Z,23.00
2023-01-21T20:48:02.272Z,20.73
2023-01-21T20:50:35.512Z,23.07
2023-01-21T20:53:06.359Z,21.57
2023-01-21T20:55:36.400Z,19.07
2023-01-21T20:58:09.359Z,22.87
2023-01-21T21:00:39.607Z,20.13
2023-01-21T21:03:09.839Z,19.85
2023-01-21T21:05:39.843Z,19.33
2023-01-21T21:08:09.496Z,19.30
2023-01-21T21:10:39.534Z,23.90
2023-01-21T21:13:13.062Z,19.97
2023-01-21T21:15:46.315Z,18.97
2023-01-21T21:18:17.042Z,23.60
2023-01-21T21:20:47.176Z,18.60
2023-01-21T21:23:17.683Z,24.00
2023-01-21T21:25:49.445Z,18.63
2023-01-21T21:28:21.954Z,16.27
2023-01-21T21:30:51.997Z,19.60
2023-01-21T21:33:24.153Z,18.73
2023-01-21T21:35:55.733Z,19.97
2023-01-21T21:38:26.214Z,16.93
2023-01-21T21:40:57.720Z,16.48
2023-01-21T21:43:38.911Z,17.20
2023-01-21T21:46:22.527Z,21.97
2023-01-21T21:48:53.753Z,17.10
2023-01-21T21:51:24.418Z,21.25
2023-01-21T21:53:54.809Z,18.90
2023-01-21T21:56:26.036Z,16.80
2023-01-21T21:58:58.729Z,15.77
2023-01-21T22:01:31.288Z,15.80
2023-01-21T22:04:02.121Z,21.70
2023-01-21T22:06:32.589Z,16.03
2023-01-21T22:09:02.681Z,20.33
2023-01-21T22:11:32.651Z,28.87
2023-01-21T22:14:05.356Z,38.17
2023-01-21T22:16:35.400Z,20.93
2023-01-21T22:19:05.162Z,18.15
2023-01-21T22:21:36.631Z,18.57
2023-01-21T22:24:08.440Z,16.13
2023-01-21T22:26:38.494Z,16.90
2023-01-21T22:29:11.929Z,17.07
2023-01-21T22:31:41.738Z,15.87
2023-01-21T22:34:12.625Z,15.97
2023-01-21T22:36:47.003Z,17.00
2023-01-21T22:39:17.071Z,16.23
2023-01-21T22:41:46.985Z,18.45
2023-01-21T22:44:19.336Z,18.53
2023-01-21T22:46:48.998Z,22.13
2023-01-21T22:49:18.740Z,19.70
2023-01-21T22:51:48.330Z,16.10
2023-01-21T22:54:18.287Z,19.43
2023-01-21T22:56:52.843Z,17.10
2023-01-21T22:59:25.492Z,17.43
2023-01-21T23:01:55.125Z,15.80
2023-01-21T23:04:24.756Z,15.57
2023-01-21T23:06:55.159Z,16.37
2023-01-21T23:09:24.878Z,15.00
2023-01-21T23:11:54.956Z,20.80
2023-01-21T23:14:27.217Z,16.90
2023-01-21T23:16:56.866Z,14.90
2023-01-21T23:19:26.792Z,20.77
2023-01-21T23:21:56.533Z,16.93
2023-01-21T23:24:26.465Z,18.20
2023-01-21T23:26:56.145Z,16.40
2023-01-21T23:29:28.428Z,13.80
2023-01-21T23:32:00.313Z,21.25
2023-01-21T23:34:30.157Z,28.13
2023-01-21T23:36:59.777Z,17.20
2023-01-21T23:39:29.375Z,22.90
2023-01-21T23:41:58.999Z,24.77
2023-01-21T23:44:31.242Z,38.87
2023-01-21T23:47:00.862Z,20.57
2023-01-21T23:49:30.496Z,24.70
2023-01-21T23:52:00.223Z,19.80
2023-01-21T23:54:29.844Z,35.70
2023-01-21T23:56:59.507Z,25.87
2023-01-21T23:59:31.757Z,45.90
